sensor_id;sensor_type;location;lat;lon;timestamp;pressure;altitude;pressure_sealevel;temperature
41593;BMP180;28026;48.562;14.440;2023-02-25T00:00:21;91935.00;;;11.60
41593;BMP180;28026;48.562;14.440;2023-02-25T00:02:52;91943.00;;;11.60
41593;BMP180;28026;48.562;14.440;2023-02-25T00:05:24;91948.00;;;11.50
41593;BMP180;28026;48.562;14.440;2023-02-25T00:07:55;91934.00;;;11.40
41593;BMP180;28026;48.562;14.440;2023-02-25T00:10:26;91942.00;;;11.40
41593;BMP180;28026;48.562;14.440;2023-02-25T00:12:57;91946.00;;;11.30
41593;BMP180;28026;48.562;14.440;2023-02-25T00:15:28;91940.00;;;11.20
41593;BMP180;28026;48.562;14.440;2023-02-25T00:17:59;91939.00;;;11.10
41593;BMP180;28026;48.562;14.440;2023-02-25T00:20:29;91934.00;;;11.00
41593;BMP180;28026;48.562;14.440;2023-02-25T00:23:00;91946.00;;;11.00
41593;BMP180;28026;48.562;14.440;2023-02-25T00:25:31;91954.00;;;11.00
41593;BMP180;28026;48.562;14.440;2023-02-25T00:28:02;91953.00;;;11.00
41593;BMP180;28026;48.562;14.440;2023-02-25T00:30:38;91955.00;;;11.00
41593;BMP180;28026;48.562;14.440;2023-02-25T00:33:09;91947.00;;;11.00
41593;BMP180;28026;48.562;14.440;2023-02-25T00:35:40;91942.00;;;11.00
41593;BMP180;28026;48.562;14.440;2023-02-25T00:38:11;91953.00;;;11.00
41593;BMP180;28026;48.562;14.440;2023-02-25T00:40:42;91957.00;;;11.10
41593;BMP180;28026;48.562;14.440;2023-02-25T00:43:13;91965.00;;;11.10
41593;BMP180;28026;48.562;14.440;2023-02-25T00:45:44;91975.00;;;11.00
41593;BMP180;28026;48.562;14.440;2023-02-25T00:48:15;91981.00;;;10.90
41593;BMP180;28026;48.562;14.440;2023-02-25T00:50:46;91982.00;;;10.80
41593;BMP180;28026;48.562;14.440;2023-02-25T00:53:17;92000.00;;;10.80
41593;BMP180;28026;48.562;14.440;2023-02-25T00:55:57;92002.00;;;10.70
41593;BMP180;28026;48.562;14.440;2023-02-25T00:58:29;92008.00;;;10.60
41593;BMP180;28026;48.562;14.440;2023-02-25T01:01:00;92006.00;;;10.60
41593;BMP180;28026;48.562;14.440;2023-02-25T01:03:32;92012.00;;;10.60
41593;BMP180;28026;48.562;14.440;2023-02-25T01:06:03;92015.00;;;10.50
41593;BMP180;28026;48.562;14.440;2023-02-25T01:08:34;92018.00;;;10.40
41593;BMP180;28026;48.562;14.440;2023-02-25T01:11:30;92021.00;;;10.40
41593;BMP180;28026;48.562;14.440;2023-02-25T01:14:07;92026.00;;;10.30
41593;BMP180;28026;48.562;14.440;2023-02-25T01:16:43;92024.00;;;10.20
41593;BMP180;28026;48.562;14.440;2023-02-25T01:19:21;92023.00;;;10.20
41593;BMP180;28026;48.562;14.440;2023-02-25T01:21:56;92021.00;;;10.20
41593;BMP180;28026;48.562;14.440;2023-02-25T01:24:31;92002.00;;;10.10
41593;BMP180;28026;48.562;14.440;2023-02-25T01:27:05;91992.00;;;10.10
41593;BMP180;28026;48.562;14.440;2023-02-25T01:29:39;92002.00;;;10.10
41593;BMP180;28026;48.562;14.440;2023-02-25T01:32:13;91991.00;;;10.10
41593;BMP180;28026;48.562;14.440;2023-02-25T01:34:44;91981.00;;;10.00
41593;BMP180;28026;48.562;14.440;2023-02-25T01:37:15;91977.00;;;10.00
41593;BMP180;28026;48.562;14.440;2023-02-25T01:39:46;91975.00;;;10.00
41593;BMP180;28026;48.562;14.440;2023-02-25T01:42:17;91979.00;;;10.00
41593;BMP180;28026;48.562;14.440;2023-02-25T01:48:12;91986.00;;;10.00
41593;BMP180;28026;48.562;14.440;2023-02-25T01:50:53;91981.00;;;10.00
41593;BMP180;28026;48.562;14.440;2023-02-25T01:53:37;91977.00;;;10.00
41593;BMP180;28026;48.562;14.440;2023-02-25T01:56:16;91973.00;;;9.90
41593;BMP180;28026;48.562;14.440;2023-02-25T01:58:52;91976.00;;;9.90
41593;BMP180;28026;48.562;14.440;2023-02-25T02:01:25;91991.00;;;9.90
41593;BMP180;28026;48.562;14.440;2023-02-25T02:04:02;91995.00;;;9.90
41593;BMP180;28026;48.562;14.440;2023-02-25T02:06:45;92005.00;;;9.90
41593;BMP180;28026;48.562;14.440;2023-02-25T02:09:24;91979.00;;;9.90
41593;BMP180;28026;48.562;14.440;2023-02-25T02:12:00;91976.00;;;9.80
41593;BMP180;28026;48.562;14.440;2023-02-25T02:14:40;91984.00;;;9.80
41593;BMP180;28026;48.562;14.440;2023-02-25T02:20:56;91995.00;;;9.70
41593;BMP180;28026;48.562;14.440;2023-02-25T02:26:57;92007.00;;;9.60
41593;BMP180;28026;48.562;14.440;2023-02-25T02:30:08;92014.00;;;9.60
41593;BMP180;28026;48.562;14.440;2023-02-25T02:33:01;92012.00;;;9.60
41593;BMP180;28026;48.562;14.440;2023-02-25T02:35:49;92022.00;;;9.60
41593;BMP180;28026;48.562;14.440;2023-02-25T02:38:48;92021.00;;;9.50
41593;BMP180;28026;48.562;14.440;2023-02-25T02:42:00;92034.00;;;9.50
41593;BMP180;28026;48.562;14.440;2023-02-25T02:51:40;92032.00;;;9.40
41593;BMP180;28026;48.562;14.440;2023-02-25T02:54:19;92022.00;;;9.40
41593;BMP180;28026;48.562;14.440;2023-02-25T02:56:54;92020.00;;;9.40
41593;BMP180;28026;48.562;14.440;2023-02-25T02:59:34;92022.00;;;9.30
41593;BMP180;28026;48.562;14.440;2023-02-25T03:02:20;92020.00;;;9.20
41593;BMP180;28026;48.562;14.440;2023-02-25T03:05:04;92022.00;;;9.20
41593;BMP180;28026;48.562;14.440;2023-02-25T03:07:50;92020.00;;;9.20
41593;BMP180;28026;48.562;14.440;2023-02-25T03:10:27;92025.00;;;9.10
41593;BMP180;28026;48.562;14.440;2023-02-25T03:12:58;92020.00;;;9.10
41593;BMP180;28026;48.562;14.440;2023-02-25T03:15:31;92033.00;;;9.00
41593;BMP180;28026;48.562;14.440;2023-02-25T03:18:15;92036.00;;;9.00
41593;BMP180;28026;48.562;14.440;2023-02-25T03:20:53;92032.00;;;9.00
41593;BMP180;28026;48.562;14.440;2023-02-25T03:23:31;92033.00;;;9.00
41593;BMP180;28026;48.562;14.440;2023-02-25T03:26:28;92038.00;;;8.90
41593;BMP180;28026;48.562;14.440;2023-02-25T03:29:01;92050.00;;;9.00
41593;BMP180;28026;48.562;14.440;2023-02-25T03:31:51;92046.00;;;8.90
41593;BMP180;28026;48.562;14.440;2023-02-25T03:34:36;92052.00;;;9.00
41593;BMP180;28026;48.562;14.440;2023-02-25T03:37:18;92042.00;;;9.00
41593;BMP180;28026;48.562;14.440;2023-02-25T03:39:58;92042.00;;;9.00
41593;BMP180;28026;48.562;14.440;2023-02-25T03:42:48;92045.00;;;9.00
41593;BMP180;28026;48.562;14.440;2023-02-25T03:45:30;92049.00;;;9.00
41593;BMP180;28026;48.562;14.440;2023-02-25T03:48:03;92060.00;;;8.90
41593;BMP180;28026;48.562;14.440;2023-02-25T03:51:00;92060.00;;;8.90
41593;BMP180;28026;48.562;14.440;2023-02-25T03:53:34;92052.00;;;8.90
41593;BMP180;28026;48.562;14.440;2023-02-25T03:56:09;92044.00;;;8.80
41593;BMP180;28026;48.562;14.440;2023-02-25T03:58:42;92055.00;;;8.80
41593;BMP180;28026;48.562;14.440;2023-02-25T04:01:28;92035.00;;;8.70
41593;BMP180;28026;48.562;14.440;2023-02-25T04:04:00;92025.00;;;8.70
41593;BMP180;28026;48.562;14.440;2023-02-25T04:06:31;92044.00;;;8.70
41593;BMP180;28026;48.562;14.440;2023-02-25T04:09:02;92048.00;;;8.60
41593;BMP180;28026;48.562;14.440;2023-02-25T04:11:34;92044.00;;;8.60
41593;BMP180;28026;48.562;14.440;2023-02-25T04:14:05;92052.00;;;8.60
41593;BMP180;28026;48.562;14.440;2023-02-25T04:16:36;92045.00;;;8.60
41593;BMP180;28026;48.562;14.440;2023-02-25T04:19:07;92042.00;;;8.60
41593;BMP180;28026;48.562;14.440;2023-02-25T04:21:38;92046.00;;;8.60
41593;BMP180;28026;48.562;14.440;2023-02-25T04:24:09;92044.00;;;8.70
41593;BMP180;28026;48.562;14.440;2023-02-25T04:26:40;92066.00;;;8.70
41593;BMP180;28026;48.562;14.440;2023-02-25T04:29:11;92072.00;;;8.60
41593;BMP180;28026;48.562;14.440;2023-02-25T04:31:42;92066.00;;;8.60
41593;BMP180;28026;48.562;14.440;2023-02-25T04:34:13;92066.00;;;8.60
41593;BMP180;28026;48.562;14.440;2023-02-25T04:36:45;92074.00;;;8.60
41593;BMP180;28026;48.562;14.440;2023-02-25T04:39:17;92074.00;;;8.60
41593;BMP180;28026;48.562;14.440;2023-02-25T04:41:48;92072.00;;;8.50
41593;BMP180;28026;48.562;14.440;2023-02-25T04:44:19;92070.00;;;8.50
41593;BMP180;28026;48.562;14.440;2023-02-25T04:46:50;92072.00;;;8.50
41593;BMP180;28026;48.562;14.440;2023-02-25T04:49:22;92078.00;;;8.40
41593;BMP180;28026;48.562;14.440;2023-02-25T04:51:53;92077.00;;;8.40
41593;BMP180;28026;48.562;14.440;2023-02-25T04:54:24;92088.00;;;8.40
41593;BMP180;28026;48.562;14.440;2023-02-25T04:56:54;92087.00;;;8.30
41593;BMP180;28026;48.562;14.440;2023-02-25T04:59:26;92077.00;;;8.30
41593;BMP180;28026;48.562;14.440;2023-02-25T05:01:56;92091.00;;;8.20
41593;BMP180;28026;48.562;14.440;2023-02-25T05:04:27;92119.00;;;8.20
41593;BMP180;28026;48.562;14.440;2023-02-25T05:06:58;92108.00;;;8.10
41593;BMP180;28026;48.562;14.440;2023-02-25T05:09:30;92117.00;;;8.00
41593;BMP180;28026;48.562;14.440;2023-02-25T05:12:03;92119.00;;;8.00
41593;BMP180;28026;48.562;14.440;2023-02-25T05:14:35;92115.00;;;8.00
41593;BMP180;28026;48.562;14.440;2023-02-25T05:17:07;92120.00;;;8.00
41593;BMP180;28026;48.562;14.440;2023-02-25T05:19:37;92118.00;;;7.90
41593;BMP180;28026;48.562;14.440;2023-02-25T05:22:08;92117.00;;;7.90
41593;BMP180;28026;48.562;14.440;2023-02-25T05:24:40;92130.00;;;7.90
41593;BMP180;28026;48.562;14.440;2023-02-25T05:27:11;92130.00;;;7.90
41593;BMP180;28026;48.562;14.440;2023-02-25T05:29:41;92116.00;;;7.90
41593;BMP180;28026;48.562;14.440;2023-02-25T05:32:12;92128.00;;;8.00
41593;BMP180;28026;48.562;14.440;2023-02-25T05:34:43;92135.00;;;8.00
41593;BMP180;28026;48.562;14.440;2023-02-25T05:37:14;92133.00;;;8.00
41593;BMP180;28026;48.562;14.440;2023-02-25T05:39:45;92131.00;;;8.00
41593;BMP180;28026;48.562;14.440;2023-02-25T05:42:16;92135.00;;;8.00
41593;BMP180;28026;48.562;14.440;2023-02-25T05:44:46;92140.00;;;7.90
41593;BMP180;28026;48.562;14.440;2023-02-25T05:47:17;92131.00;;;7.90
41593;BMP180;28026;48.562;14.440;2023-02-25T05:49:48;92139.00;;;7.90
41593;BMP180;28026;48.562;14.440;2023-02-25T05:52:19;92148.00;;;8.00
41593;BMP180;28026;48.562;14.440;2023-02-25T05:54:50;92144.00;;;8.00
41593;BMP180;28026;48.562;14.440;2023-02-25T05:57:21;92150.00;;;8.00
41593;BMP180;28026;48.562;14.440;2023-02-25T05:59:53;92147.00;;;8.10
41593;BMP180;28026;48.562;14.440;2023-02-25T06:02:24;92157.00;;;8.00
41593;BMP180;28026;48.562;14.440;2023-02-25T06:04:55;92153.00;;;8.00
41593;BMP180;28026;48.562;14.440;2023-02-25T06:07:31;92154.00;;;8.00
41593;BMP180;28026;48.562;14.440;2023-02-25T06:10:03;92150.00;;;8.10
41593;BMP180;28026;48.562;14.440;2023-02-25T06:12:35;92155.00;;;8.10
41593;BMP180;28026;48.562;14.440;2023-02-25T06:15:08;92159.00;;;8.10
41593;BMP180;28026;48.562;14.440;2023-02-25T06:17:39;92152.00;;;8.10
41593;BMP180;28026;48.562;14.440;2023-02-25T06:20:11;92155.00;;;8.10
41593;BMP180;28026;48.562;14.440;2023-02-25T06:22:43;92166.00;;;8.10
41593;BMP180;28026;48.562;14.440;2023-02-25T06:25:14;92166.00;;;8.10
41593;BMP180;28026;48.562;14.440;2023-02-25T06:27:45;92173.00;;;8.00
41593;BMP180;28026;48.562;14.440;2023-02-25T06:30:17;92184.00;;;8.10
41593;BMP180;28026;48.562;14.440;2023-02-25T06:32:48;92184.00;;;8.00
41593;BMP180;28026;48.562;14.440;2023-02-25T06:35:19;92180.00;;;8.00
41593;BMP180;28026;48.562;14.440;2023-02-25T06:37:58;92182.00;;;8.00
41593;BMP180;28026;48.562;14.440;2023-02-25T06:40:29;92184.00;;;8.00
41593;BMP180;28026;48.562;14.440;2023-02-25T06:43:03;92191.00;;;7.90
41593;BMP180;28026;48.562;14.440;2023-02-25T06:45:35;92186.00;;;8.00
41593;BMP180;28026;48.562;14.440;2023-02-25T06:48:06;92201.00;;;8.00
41593;BMP180;28026;48.562;14.440;2023-02-25T06:50:39;92196.00;;;8.00
41593;BMP180;28026;48.562;14.440;2023-02-25T06:53:10;92207.00;;;7.90
41593;BMP180;28026;48.562;14.440;2023-02-25T06:55:41;92208.00;;;7.90
41593;BMP180;28026;48.562;14.440;2023-02-25T06:58:12;92207.00;;;7.90
41593;BMP180;28026;48.562;14.440;2023-02-25T07:00:43;92220.00;;;8.00
41593;BMP180;28026;48.562;14.440;2023-02-25T07:03:14;92227.00;;;8.00
41593;BMP180;28026;48.562;14.440;2023-02-25T07:05:46;92223.00;;;8.00
41593;BMP180;28026;48.562;14.440;2023-02-25T07:08:17;92221.00;;;7.90
41593;BMP180;28026;48.562;14.440;2023-02-25T07:10:48;92229.00;;;7.90
41593;BMP180;28026;48.562;14.440;2023-02-25T07:13:19;92228.00;;;7.90
41593;BMP180;28026;48.562;14.440;2023-02-25T07:15:50;92227.00;;;8.00
41593;BMP180;28026;48.562;14.440;2023-02-25T07:18:21;92227.00;;;8.20
41593;BMP180;28026;48.562;14.440;2023-02-25T07:20:52;92234.00;;;8.30
41593;BMP180;28026;48.562;14.440;2023-02-25T07:23:23;92239.00;;;8.30
41593;BMP180;28026;48.562;14.440;2023-02-25T07:25:53;92231.00;;;8.30
41593;BMP180;28026;48.562;14.440;2023-02-25T07:28:24;92233.00;;;8.30
41593;BMP180;28026;48.562;14.440;2023-02-25T07:30:55;92234.00;;;8.20
41593;BMP180;28026;48.562;14.440;2023-02-25T07:33:29;92236.00;;;8.30
41593;BMP180;28026;48.562;14.440;2023-02-25T07:36:01;92241.00;;;8.30
41593;BMP180;28026;48.562;14.440;2023-02-25T07:38:32;92234.00;;;8.30
41593;BMP180;28026;48.562;14.440;2023-02-25T07:41:08;92244.00;;;8.30
41593;BMP180;28026;48.562;14.440;2023-02-25T07:43:42;92243.00;;;8.30
41593;BMP180;28026;48.562;14.440;2023-02-25T07:46:14;92241.00;;;8.30
41593;BMP180;28026;48.562;14.440;2023-02-25T07:48:44;92241.00;;;8.30
41593;BMP180;28026;48.562;14.440;2023-02-25T07:51:21;92247.00;;;8.20
41593;BMP180;28026;48.562;14.440;2023-02-25T07:53:56;92251.00;;;8.20
41593;BMP180;28026;48.562;14.440;2023-02-25T07:56:29;92246.00;;;8.20
41593;BMP180;28026;48.562;14.440;2023-02-25T07:59:01;92254.00;;;8.20
41593;BMP180;28026;48.562;14.440;2023-02-25T08:01:33;92251.00;;;8.30
41593;BMP180;28026;48.562;14.440;2023-02-25T08:04:09;92246.00;;;8.40
41593;BMP180;28026;48.562;14.440;2023-02-25T08:06:41;92242.00;;;8.40
41593;BMP180;28026;48.562;14.440;2023-02-25T08:09:12;92241.00;;;8.40
41593;BMP180;28026;48.562;14.440;2023-02-25T08:11:43;92247.00;;;8.40
41593;BMP180;28026;48.562;14.440;2023-02-25T08:14:14;92251.00;;;8.40
41593;BMP180;28026;48.562;14.440;2023-02-25T08:16:45;92246.00;;;8.50
41593;BMP180;28026;48.562;14.440;2023-02-25T08:19:16;92233.00;;;8.50
41593;BMP180;28026;48.562;14.440;2023-02-25T08:21:47;92228.00;;;8.50
41593;BMP180;28026;48.562;14.440;2023-02-25T08:24:18;92241.00;;;8.50
41593;BMP180;28026;48.562;14.440;2023-02-25T08:26:50;92240.00;;;8.50
41593;BMP180;28026;48.562;14.440;2023-02-25T08:29:22;92237.00;;;8.50
41593;BMP180;28026;48.562;14.440;2023-02-25T08:31:53;92237.00;;;8.40
41593;BMP180;28026;48.562;14.440;2023-02-25T08:34:24;92228.00;;;8.40
41593;BMP180;28026;48.562;14.440;2023-02-25T08:36:55;92241.00;;;8.30
41593;BMP180;28026;48.562;14.440;2023-02-25T08:39:26;92245.00;;;8.30
41593;BMP180;28026;48.562;14.440;2023-02-25T08:41:58;92246.00;;;8.40
41593;BMP180;28026;48.562;14.440;2023-02-25T08:44:29;92245.00;;;8.40
41593;BMP180;28026;48.562;14.440;2023-02-25T08:47:00;92245.00;;;8.40
41593;BMP180;28026;48.562;14.440;2023-02-25T08:49:31;92248.00;;;8.40
41593;BMP180;28026;48.562;14.440;2023-02-25T08:52:02;92250.00;;;8.40
41593;BMP180;28026;48.562;14.440;2023-02-25T08:54:33;92245.00;;;8.30
41593;BMP180;28026;48.562;14.440;2023-02-25T08:57:05;92243.00;;;8.30
41593;BMP180;28026;48.562;14.440;2023-02-25T08:59:36;92251.00;;;8.30
41593;BMP180;28026;48.562;14.440;2023-02-25T09:02:10;92242.00;;;8.20
41593;BMP180;28026;48.562;14.440;2023-02-25T09:04:44;92242.00;;;8.20
41593;BMP180;28026;48.562;14.440;2023-02-25T09:07:15;92239.00;;;8.20
41593;BMP180;28026;48.562;14.440;2023-02-25T09:09:46;92238.00;;;8.20
41593;BMP180;28026;48.562;14.440;2023-02-25T09:12:17;92249.00;;;8.20
41593;BMP180;28026;48.562;14.440;2023-02-25T09:14:48;92239.00;;;8.10
41593;BMP180;28026;48.562;14.440;2023-02-25T09:17:19;92251.00;;;8.10
41593;BMP180;28026;48.562;14.440;2023-02-25T09:19:50;92254.00;;;8.10
41593;BMP180;28026;48.562;14.440;2023-02-25T09:22:21;92261.00;;;8.10
41593;BMP180;28026;48.562;14.440;2023-02-25T09:24:52;92271.00;;;8.20
41593;BMP180;28026;48.562;14.440;2023-02-25T09:27:23;92268.00;;;8.20
41593;BMP180;28026;48.562;14.440;2023-02-25T09:29:54;92268.00;;;8.20
41593;BMP180;28026;48.562;14.440;2023-02-25T09:32:25;92267.00;;;8.10
41593;BMP180;28026;48.562;14.440;2023-02-25T09:34:56;92275.00;;;8.20
41593;BMP180;28026;48.562;14.440;2023-02-25T09:37:27;92272.00;;;8.30
41593;BMP180;28026;48.562;14.440;2023-02-25T09:39:57;92277.00;;;8.30
41593;BMP180;28026;48.562;14.440;2023-02-25T09:46:08;92272.00;;;8.40
41593;BMP180;28026;48.562;14.440;2023-02-25T09:49:10;92274.00;;;8.40
41593;BMP180;28026;48.562;14.440;2023-02-25T09:52:13;92277.00;;;8.40
41593;BMP180;28026;48.562;14.440;2023-02-25T09:54:55;92276.00;;;8.50
41593;BMP180;28026;48.562;14.440;2023-02-25T09:57:38;92271.00;;;8.50
41593;BMP180;28026;48.562;14.440;2023-02-25T10:00:19;92257.00;;;8.50
41593;BMP180;28026;48.562;14.440;2023-02-25T10:05:51;92264.00;;;8.60
41593;BMP180;28026;48.562;14.440;2023-02-25T10:09:12;92276.00;;;8.90
41593;BMP180;28026;48.562;14.440;2023-02-25T10:12:33;92265.00;;;9.20
41593;BMP180;28026;48.562;14.440;2023-02-25T10:19:04;92262.00;;;9.20
41593;BMP180;28026;48.562;14.440;2023-02-25T10:25:26;92266.00;;;9.60
41593;BMP180;28026;48.562;14.440;2023-02-25T10:28:04;92267.00;;;9.80
41593;BMP180;28026;48.562;14.440;2023-02-25T10:30:54;92271.00;;;10.10
41593;BMP180;28026;48.562;14.440;2023-02-25T10:33:39;92261.00;;;10.10
41593;BMP180;28026;48.562;14.440;2023-02-25T10:36:38;92264.00;;;10.20
41593;BMP180;28026;48.562;14.440;2023-02-25T10:39:12;92265.00;;;10.40
41593;BMP180;28026;48.562;14.440;2023-02-25T10:41:43;92266.00;;;10.30
41593;BMP180;28026;48.562;14.440;2023-02-25T10:44:14;92268.00;;;10.30
41593;BMP180;28026;48.562;14.440;2023-02-25T10:47:03;92266.00;;;10.20
41593;BMP180;28026;48.562;14.440;2023-02-25T10:49:36;92273.00;;;10.10
41593;BMP180;28026;48.562;14.440;2023-02-25T10:52:18;92266.00;;;10.00
41593;BMP180;28026;48.562;14.440;2023-02-25T10:54:51;92262.00;;;10.10
41593;BMP180;28026;48.562;14.440;2023-02-25T10:57:27;92263.00;;;10.10
41593;BMP180;28026;48.562;14.440;2023-02-25T11:00:29;92256.00;;;10.50
41593;BMP180;28026;48.562;14.440;2023-02-25T11:03:04;92259.00;;;10.70
41593;BMP180;28026;48.562;14.440;2023-02-25T11:05:37;92251.00;;;10.70
41593;BMP180;28026;48.562;14.440;2023-02-25T11:08:30;92243.00;;;10.90
41593;BMP180;28026;48.562;14.440;2023-02-25T11:14:12;92251.00;;;11.30
41593;BMP180;28026;48.562;14.440;2023-02-25T11:16:45;92262.00;;;11.60
41593;BMP180;28026;48.562;14.440;2023-02-25T11:19:23;92233.00;;;11.70
41593;BMP180;28026;48.562;14.440;2023-02-25T11:22:07;92223.00;;;11.80
41593;BMP180;28026;48.562;14.440;2023-02-25T11:24:41;92246.00;;;11.70
41593;BMP180;28026;48.562;14.440;2023-02-25T11:27:34;92242.00;;;11.90
41593;BMP180;28026;48.562;14.440;2023-02-25T11:30:27;92259.00;;;12.10
41593;BMP180;28026;48.562;14.440;2023-02-25T11:33:08;92244.00;;;11.90
41593;BMP180;28026;48.562;14.440;2023-02-25T11:35:58;92243.00;;;11.80
41593;BMP180;28026;48.562;14.440;2023-02-25T11:38:38;92242.00;;;12.00
41593;BMP180;28026;48.562;14.440;2023-02-25T11:41:20;92234.00;;;11.70
41593;BMP180;28026;48.562;14.440;2023-02-25T11:43:52;92221.00;;;11.70
41593;BMP180;28026;48.562;14.440;2023-02-25T11:46:27;92228.00;;;11.90
41593;BMP180;28026;48.562;14.440;2023-02-25T11:58:40;92205.00;;;11.90
41593;BMP180;28026;48.562;14.440;2023-02-25T12:01:25;92193.00;;;12.00
41593;BMP180;28026;48.562;14.440;2023-02-25T12:14:37;92188.00;;;12.40
41593;BMP180;28026;48.562;14.440;2023-02-25T12:43:54;92195.00;;;12.10
41593;BMP180;28026;48.562;14.440;2023-02-25T12:50:44;92189.00;;;12.50
41593;BMP180;28026;48.562;14.440;2023-02-25T13:05:58;92207.00;;;12.30
41593;BMP180;28026;48.562;14.440;2023-02-25T13:15:00;92207.00;;;12.00
41593;BMP180;28026;48.562;14.440;2023-02-25T13:25:11;92200.00;;;11.50
41593;BMP180;28026;48.562;14.440;2023-02-25T13:31:43;92209.00;;;11.40
41593;BMP180;28026;48.562;14.440;2023-02-25T13:34:58;92204.00;;;11.40
41593;BMP180;28026;48.562;14.440;2023-02-25T13:51:44;92190.00;;;12.00
41593;BMP180;28026;48.562;14.440;2023-02-25T14:04:49;92197.00;;;11.70
41593;BMP180;28026;48.562;14.440;2023-02-25T14:24:11;92211.00;;;11.80
41593;BMP180;28026;48.562;14.440;2023-02-25T14:27:22;92205.00;;;11.90
41593;BMP180;28026;48.562;14.440;2023-02-25T15:05:47;92258.00;;;11.80
41593;BMP180;28026;48.562;14.440;2023-02-25T15:12:16;92255.00;;;11.30
41593;BMP180;28026;48.562;14.440;2023-02-25T15:21:45;92261.00;;;11.10
41593;BMP180;28026;48.562;14.440;2023-02-25T15:24:40;92266.00;;;11.10
41593;BMP180;28026;48.562;14.440;2023-02-25T15:30:10;92272.00;;;10.90
41593;BMP180;28026;48.562;14.440;2023-02-25T15:35:58;92275.00;;;11.00
41593;BMP180;28026;48.562;14.440;2023-02-25T15:46:44;92277.00;;;11.20
41593;BMP180;28026;48.562;14.440;2023-02-25T15:52:08;92282.00;;;11.10
41593;BMP180;28026;48.562;14.440;2023-02-25T15:59:54;92273.00;;;11.10
41593;BMP180;28026;48.562;14.440;2023-02-25T16:05:18;92280.00;;;11.00
41593;BMP180;28026;48.562;14.440;2023-02-25T16:08:17;92274.00;;;10.90
41593;BMP180;28026;48.562;14.440;2023-02-25T16:10:55;92275.00;;;10.90
41593;BMP180;28026;48.562;14.440;2023-02-25T16:13:35;92303.00;;;10.90
41593;BMP180;28026;48.562;14.440;2023-02-25T16:16:11;92311.00;;;11.00
41593;BMP180;28026;48.562;14.440;2023-02-25T16:18:50;92314.00;;;11.00
41593;BMP180;28026;48.562;14.440;2023-02-25T16:21:41;92310.00;;;10.80
41593;BMP180;28026;48.562;14.440;2023-02-25T16:24:17;92329.00;;;10.70
41593;BMP180;28026;48.562;14.440;2023-02-25T16:26:59;92336.00;;;10.70
41593;BMP180;28026;48.562;14.440;2023-02-25T16:29:53;92328.00;;;10.40
41593;BMP180;28026;48.562;14.440;2023-02-25T16:35:40;92338.00;;;10.00
41593;BMP180;28026;48.562;14.440;2023-02-25T16:38:36;92340.00;;;9.90
41593;BMP180;28026;48.562;14.440;2023-02-25T16:41:32;92351.00;;;9.80
41593;BMP180;28026;48.562;14.440;2023-02-25T16:44:04;92355.00;;;9.70
41593;BMP180;28026;48.562;14.440;2023-02-25T16:46:37;92369.00;;;9.70
41593;BMP180;28026;48.562;14.440;2023-02-25T16:49:26;92372.00;;;9.60
41593;BMP180;28026;48.562;14.440;2023-02-25T16:52:01;92363.00;;;9.50
41593;BMP180;28026;48.562;14.440;2023-02-25T16:54:37;92356.00;;;9.40
41593;BMP180;28026;48.562;14.440;2023-02-25T16:57:19;92371.00;;;9.40
41593;BMP180;28026;48.562;14.440;2023-02-25T17:00:23;92365.00;;;9.40
41593;BMP180;28026;48.562;14.440;2023-02-25T17:02:59;92356.00;;;9.40
41593;BMP180;28026;48.562;14.440;2023-02-25T17:05:36;92364.00;;;9.40
41593;BMP180;28026;48.562;14.440;2023-02-25T17:08:16;92363.00;;;9.40
41593;BMP180;28026;48.562;14.440;2023-02-25T17:10:53;92359.00;;;9.30
41593;BMP180;28026;48.562;14.440;2023-02-25T17:13:34;92361.00;;;9.30
41593;BMP180;28026;48.562;14.440;2023-02-25T17:16:27;92370.00;;;9.20
41593;BMP180;28026;48.562;14.440;2023-02-25T17:19:02;92374.00;;;9.20
41593;BMP180;28026;48.562;14.440;2023-02-25T17:21:42;92376.00;;;9.30
41593;BMP180;28026;48.562;14.440;2023-02-25T17:24:20;92377.00;;;9.30
41593;BMP180;28026;48.562;14.440;2023-02-25T17:26:57;92383.00;;;9.20
41593;BMP180;28026;48.562;14.440;2023-02-25T17:29:35;92385.00;;;9.20
41593;BMP180;28026;48.562;14.440;2023-02-25T17:32:33;92392.00;;;9.10
41593;BMP180;28026;48.562;14.440;2023-02-25T17:35:05;92384.00;;;9.00
41593;BMP180;28026;48.562;14.440;2023-02-25T17:37:38;92387.00;;;9.00
41593;BMP180;28026;48.562;14.440;2023-02-25T17:40:13;92382.00;;;8.90
41593;BMP180;28026;48.562;14.440;2023-02-25T17:42:45;92390.00;;;8.90
41593;BMP180;28026;48.562;14.440;2023-02-25T17:45:55;92378.00;;;8.90
41593;BMP180;28026;48.562;14.440;2023-02-25T17:48:33;92382.00;;;8.80
41593;BMP180;28026;48.562;14.440;2023-02-25T17:51:12;92394.00;;;8.80
41593;BMP180;28026;48.562;14.440;2023-02-25T17:53:53;92395.00;;;8.80
41593;BMP180;28026;48.562;14.440;2023-02-25T17:56:30;92402.00;;;8.80
41593;BMP180;28026;48.562;14.440;2023-02-25T17:59:35;92399.00;;;8.90
41593;BMP180;28026;48.562;14.440;2023-02-25T18:02:35;92395.00;;;9.00
41593;BMP180;28026;48.562;14.440;2023-02-25T18:07:44;92404.00;;;9.00
41593;BMP180;28026;48.562;14.440;2023-02-25T18:13:03;92407.00;;;9.10
41593;BMP180;28026;48.562;14.440;2023-02-25T18:15:34;92401.00;;;9.10
41593;BMP180;28026;48.562;14.440;2023-02-25T18:18:06;92403.00;;;9.10
41593;BMP180;28026;48.562;14.440;2023-02-25T18:20:56;92403.00;;;9.10
41593;BMP180;28026;48.562;14.440;2023-02-25T18:23:27;92410.00;;;9.10
41593;BMP180;28026;48.562;14.440;2023-02-25T18:28:55;92416.00;;;9.10
41593;BMP180;28026;48.562;14.440;2023-02-25T18:31:29;92423.00;;;9.20
41593;BMP180;28026;48.562;14.440;2023-02-25T18:34:01;92421.00;;;9.20
41593;BMP180;28026;48.562;14.440;2023-02-25T18:36:32;92426.00;;;9.20
41593;BMP180;28026;48.562;14.440;2023-02-25T18:39:03;92419.00;;;9.10
41593;BMP180;28026;48.562;14.440;2023-02-25T18:41:34;92420.00;;;9.00
41593;BMP180;28026;48.562;14.440;2023-02-25T18:44:12;92412.00;;;8.80
41593;BMP180;28026;48.562;14.440;2023-02-25T18:46:43;92432.00;;;8.80
41593;BMP180;28026;48.562;14.440;2023-02-25T18:49:14;92428.00;;;8.70
41593;BMP180;28026;48.562;14.440;2023-02-25T18:51:48;92426.00;;;8.60
41593;BMP180;28026;48.562;14.440;2023-02-25T18:54:20;92428.00;;;8.50
41593;BMP180;28026;48.562;14.440;2023-02-25T18:56:51;92431.00;;;8.50